Time;durP1;ratioP1;P1;durP2;ratioP2;P2;SDS_P1;SDS_P2;PMS_P1;PMS_P2;Temp;Humidity;BMP_temperature;BMP_pressure;BME280_temperature;BME280_humidity;BME280_pressure;Samples;Min_cycle;Max_cycle;Signal;HPM_P1;HPM_P2
2021/07/27 00:00:52;;;;;;;48.63;36.40;;;;;;;;;;5116270;27;20043;-82
2021/07/27 00:03:18;;;;;;;55.75;38.55;;;;;;;;;;5130825;27;20031;-85
2021/07/27 00:05:44;;;;;;;53.00;38.60;;;;;;;;;;5130810;27;20046;-82
2021/07/27 00:08:10;;;;;;;55.35;38.95;;;;;;;;;;5131525;27;20542;-82
2021/07/27 00:10:37;;;;;;;61.55;41.08;;;;;;;;;;5128033;27;20549;-83
2021/07/27 00:13:06;;;;;;;52.60;38.17;;;;;;;;;;5123695;27;20039;-83
2021/07/27 00:15:33;;;;;;;67.68;42.65;;;;;;;;;;5128984;27;20031;-82
2021/07/27 00:17:59;;;;;;;52.33;37.92;;;;;;;;;;5126742;27;20063;-82
2021/07/27 00:20:26;;;;;;;69.38;44.47;;;;;;;;;;5130119;27;20482;-79
2021/07/27 00:22:52;;;;;;;66.93;44.28;;;;;;;;;;5126655;27;20049;-82
2021/07/27 00:25:19;;;;;;;53.80;39.45;;;;;;;;;;5129539;27;20035;-82
2021/07/27 00:27:45;;;;;;;65.38;44.45;;;;;;;;;;5127720;27;20118;-82
2021/07/27 00:30:15;;;;;;;66.32;45.33;;;;;;;;;;5126429;27;20114;-83
2021/07/27 00:32:42;;;;;;;60.58;43.10;;;;;;;;;;5120701;27;20070;-83
2021/07/27 00:35:10;;;;;;;60.25;41.42;;;;;;;;;;5127338;27;20032;-81
2021/07/27 00:37:41;;;;;;;68.43;44.47;;;;;;;;;;5127147;27;20126;-82
2021/07/27 00:40:08;;;;;;;75.22;47.30;;;;;;;;;;5127253;27;20052;-83
2021/07/27 00:42:41;;;;;;;67.75;45.85;;;;;;;;;;5125942;27;20057;-83
2021/07/27 00:45:08;;;;;;;74.05;47.50;;;;;;;;;;5128279;27;20054;-83
2021/07/27 00:47:34;;;;;;;75.18;47.17;;;;;;;;;;5139198;27;20050;-83
2021/07/27 00:50:00;;;;;;;76.80;48.58;;;;;;;;;;5129589;27;20039;-80
2021/07/27 00:52:26;;;;;;;69.70;46.45;;;;;;;;;;5121087;27;20046;-84
2021/07/27 00:54:53;;;;;;;74.93;48.72;;;;;;;;;;5132031;27;20039;-83
2021/07/27 00:57:19;;;;;;;74.25;49.15;;;;;;;;;;5124039;27;20043;-83
2021/07/27 00:59:45;;;;;;;78.80;48.90;;;;;;;;;;5132349;27;20045;-83
2021/07/27 01:02:11;;;;;;;71.80;47.38;;;;;;;;;;5126346;27;20119;-83
2021/07/27 01:04:37;;;;;;;73.10;47.80;;;;;;;;;;5128430;27;20039;-84
2021/07/27 01:07:09;;;;;;;66.22;46.72;;;;;;;;;;5123801;27;20047;-82
2021/07/27 01:09:35;;;;;;;72.57;47.17;;;;;;;;;;5127903;27;20057;-83
2021/07/27 01:12:02;;;;;;;73.30;48.00;;;;;;;;;;5130410;27;20096;-82
2021/07/27 01:14:28;;;;;;;67.78;45.17;;;;;;;;;;5128351;27;20042;-83
2021/07/27 01:16:56;;;;;;;106.90;52.22;;;;;;;;;;5127946;27;20086;-81
2021/07/27 01:43:40;;;;;;;89.43;48.42;;;;;;;;;;5128315;27;20042;-81
2021/07/27 01:46:07;;;;;;;86.57;47.92;;;;;;;;;;5108258;27;20040;-83
2021/07/27 01:48:33;;;;;;;94.68;50.45;;;;;;;;;;5129878;27;20177;-82
2021/07/27 01:51:00;;;;;;;85.78;47.15;;;;;;;;;;5130630;27;20512;-77
2021/07/27 01:53:35;;;;;;;90.32;48.65;;;;;;;;;;5128930;27;20050;-83
2021/07/27 01:56:02;;;;;;;79.60;42.97;;;;;;;;;;5127428;27;20039;-83
2021/07/27 01:58:28;;;;;;;97.82;49.08;;;;;;;;;;5124839;27;20040;-81
2021/07/27 02:00:54;;;;;;;93.90;40.78;;;;;;;;;;5126755;27;20375;-83
2021/07/27 02:03:23;;;;;;;53.25;26.65;;;;;;;;;;5125627;27;20039;-83
2021/07/27 02:05:50;;;;;;;44.10;22.83;;;;;;;;;;5126226;27;20503;-83
2021/07/27 02:08:16;;;;;;;41.95;19.55;;;;;;;;;;5125596;27;20039;-82
2021/07/27 02:10:46;;;;;;;30.98;15.75;;;;;;;;;;5124946;27;20039;-82
2021/07/27 02:13:13;;;;;;;22.85;13.80;;;;;;;;;;5142970;27;20035;-80
2021/07/27 02:15:41;;;;;;;34.83;17.38;;;;;;;;;;5127213;28;20077;-82
2021/07/27 02:18:07;;;;;;;38.00;18.45;;;;;;;;;;5106862;28;20461;-82
2021/07/27 02:20:34;;;;;;;31.02;17.45;;;;;;;;;;5124308;28;20519;-81
2021/07/27 02:23:00;;;;;;;42.53;21.30;;;;;;;;;;5123879;28;20039;-82
2021/07/27 02:25:26;;;;;;;44.72;22.30;;;;;;;;;;5123861;27;20056;-82
2021/07/27 02:27:52;;;;;;;47.08;24.35;;;;;;;;;;5116351;28;20047;-79
2021/07/27 02:30:18;;;;;;;37.00;21.42;;;;;;;;;;5127587;28;20466;-82
2021/07/27 02:32:45;;;;;;;44.17;23.98;;;;;;;;;;5109317;28;20046;-82
2021/07/27 02:35:11;;;;;;;43.88;23.00;;;;;;;;;;5129596;28;20050;-79
2021/07/27 02:37:39;;;;;;;52.90;24.67;;;;;;;;;;5122497;27;20043;-81
2021/07/27 02:40:06;;;;;;;49.08;25.27;;;;;;;;;;5110332;28;20048;-78
2021/07/27 02:42:32;;;;;;;53.20;25.92;;;;;;;;;;5123699;27;20035;-83
2021/07/27 02:44:58;;;;;;;55.63;27.08;;;;;;;;;;5130695;28;20418;-83
2021/07/27 02:47:24;;;;;;;68.43;30.35;;;;;;;;;;5126043;28;20111;-80
2021/07/27 02:49:51;;;;;;;54.75;28.50;;;;;;;;;;5130306;28;20063;-83
2021/07/27 02:52:18;;;;;;;72.25;34.58;;;;;;;;;;5123189;28;20463;-81
2021/07/27 02:54:44;;;;;;;57.67;32.15;;;;;;;;;;5142125;27;20122;-83
2021/07/27 02:57:10;;;;;;;73.25;36.25;;;;;;;;;;5120455;27;20039;-82
2021/07/27 02:59:36;;;;;;;75.38;39.47;;;;;;;;;;5124572;27;20058;-81
2021/07/27 03:02:03;;;;;;;78.80;39.95;;;;;;;;;;5125808;27;20063;-83
2021/07/27 03:04:29;;;;;;;60.65;35.20;;;;;;;;;;5125027;28;20084;-82
2021/07/27 03:06:55;;;;;;;60.83;36.42;;;;;;;;;;5127758;28;20039;-82
2021/07/27 03:09:26;;;;;;;71.60;37.20;;;;;;;;;;5129113;28;20393;-82
2021/07/27 03:11:52;;;;;;;79.10;38.90;;;;;;;;;;5127083;27;20088;-83
2021/07/27 03:14:18;;;;;;;55.05;32.70;;;;;;;;;;5122453;27;20043;-83
2021/07/27 03:16:45;;;;;;;54.42;34.40;;;;;;;;;;5133727;27;20046;-83
2021/07/27 03:19:11;;;;;;;58.55;34.92;;;;;;;;;;5120976;27;20043;-81
2021/07/27 03:21:37;;;;;;;46.80;29.42;;;;;;;;;;5124773;27;20457;-81
2021/07/27 03:24:03;;;;;;;48.88;30.63;;;;;;;;;;5128013;27;20393;-82
2021/07/27 03:26:29;;;;;;;57.47;34.65;;;;;;;;;;5124542;27;20361;-77
2021/07/27 03:28:55;;;;;;;60.20;34.13;;;;;;;;;;5127979;27;20036;-83
2021/07/27 03:31:22;;;;;;;59.65;35.25;;;;;;;;;;5130305;27;20047;-83
2021/07/27 03:33:48;;;;;;;57.47;34.63;;;;;;;;;;5130339;27;20039;-83
2021/07/27 03:36:14;;;;;;;61.55;36.50;;;;;;;;;;5133897;27;20035;-78
2021/07/27 03:38:41;;;;;;;66.90;37.25;;;;;;;;;;5127211;27;20044;-81
2021/07/27 03:41:07;;;;;;;58.53;35.58;;;;;;;;;;5128503;27;20055;-82
2021/07/27 03:43:34;;;;;;;60.50;35.22;;;;;;;;;;5123194;27;20066;-81
2021/07/27 03:46:00;;;;;;;74.40;39.17;;;;;;;;;;5133335;27;20493;-83
2021/07/27 03:48:26;;;;;;;69.28;37.55;;;;;;;;;;5128353;27;20047;-82
2021/07/27 03:50:52;;;;;;;76.32;38.50;;;;;;;;;;5126519;27;20439;-81
2021/07/27 03:53:20;;;;;;;78.93;39.78;;;;;;;;;;5128569;27;20086;-81
2021/07/27 03:55:46;;;;;;;102.25;43.50;;;;;;;;;;5129005;27;20043;-82
2021/07/27 03:58:12;;;;;;;78.35;39.20;;;;;;;;;;5130280;27;20080;-82
2021/07/27 04:00:39;;;;;;;73.15;36.63;;;;;;;;;;5126327;27;20066;-80
2021/07/27 04:03:05;;;;;;;71.88;38.90;;;;;;;;;;5126908;27;20054;-82
2021/07/27 04:05:35;;;;;;;72.65;38.42;;;;;;;;;;5125790;27;20136;-83
2021/07/27 04:08:02;;;;;;;70.93;37.03;;;;;;;;;;5128865;27;20297;-84
2021/07/27 04:10:28;;;;;;;67.00;37.03;;;;;;;;;;5126415;27;20074;-83
2021/07/27 04:12:54;;;;;;;79.75;38.30;;;;;;;;;;5118824;27;20063;-79
2021/07/27 04:15:26;;;;;;;81.00;38.65;;;;;;;;;;5119919;27;20035;-78
2021/07/27 04:17:53;;;;;;;56.60;32.75;;;;;;;;;;5132356;27;20122;-86
2021/07/27 04:20:20;;;;;;;61.17;34.60;;;;;;;;;;5112609;27;20035;-81
2021/07/27 04:22:49;;;;;;;65.32;34.53;;;;;;;;;;5127826;27;20047;-78
2021/07/27 04:25:15;;;;;;;65.20;36.13;;;;;;;;;;5132808;27;20110;-80
2021/07/27 04:27:41;;;;;;;56.63;33.45;;;;;;;;;;5126271;27;20043;-80
2021/07/27 04:30:08;;;;;;;63.53;34.65;;;;;;;;;;5132094;27;20043;-85
2021/07/27 04:32:34;;;;;;;70.65;36.28;;;;;;;;;;5136564;27;20055;-82
2021/07/27 04:35:01;;;;;;;58.95;32.47;;;;;;;;;;5118245;27;20046;-83
2021/07/27 04:37:27;;;;;;;66.57;34.78;;;;;;;;;;5124025;27;20047;-83
2021/07/27 04:39:54;;;;;;;65.93;34.45;;;;;;;;;;5126063;27;20414;-78
2021/07/27 04:42:20;;;;;;;67.20;36.00;;;;;;;;;;5127872;27;20048;-81
2021/07/27 04:44:46;;;;;;;67.75;35.00;;;;;;;;;;5112869;27;20031;-84
2021/07/27 04:47:13;;;;;;;69.38;36.55;;;;;;;;;;5127398;27;20070;-89
2021/07/27 04:49:39;;;;;;;57.63;33.00;;;;;;;;;;5133000;27;20224;-82
2021/07/27 04:52:05;;;;;;;68.22;36.25;;;;;;;;;;5120530;27;20114;-82
2021/07/27 04:54:41;;;;;;;58.03;33.42;;;;;;;;;;5129139;27;20432;-80
2021/07/27 04:57:09;;;;;;;59.83;33.28;;;;;;;;;;5130864;27;20078;-81
2021/07/27 04:59:35;;;;;;;65.13;35.80;;;;;;;;;;5131176;27;20058;-81
2021/07/27 05:02:01;;;;;;;63.15;34.17;;;;;;;;;;5127717;27;20351;-79
2021/07/27 05:04:29;;;;;;;61.15;34.47;;;;;;;;;;5127947;27;20522;-80
2021/07/27 05:06:56;;;;;;;50.90;32.17;;;;;;;;;;5130317;27;20027;-81
2021/07/27 05:09:22;;;;;;;58.97;34.17;;;;;;;;;;5130839;27;20046;-78
2021/07/27 05:11:48;;;;;;;54.10;31.98;;;;;;;;;;5129547;27;20043;-81
2021/07/27 05:14:14;;;;;;;57.00;34.45;;;;;;;;;;5111791;28;20047;-81
2021/07/27 05:16:40;;;;;;;52.92;31.60;;;;;;;;;;5126873;27;20031;-82
2021/07/27 05:19:10;;;;;;;64.05;33.92;;;;;;;;;;5126356;27;20043;-80
2021/07/27 05:21:37;;;;;;;54.20;30.95;;;;;;;;;;5126540;27;20039;-80
2021/07/27 05:24:03;;;;;;;44.47;28.95;;;;;;;;;;5133323;27;20477;-82
2021/07/27 05:26:29;;;;;;;55.78;32.08;;;;;;;;;;5132605;27;20035;-81
2021/07/27 05:28:55;;;;;;;41.63;27.40;;;;;;;;;;5111459;28;20458;-81
2021/07/27 05:31:23;;;;;;;49.90;29.83;;;;;;;;;;5122896;27;20035;-81
2021/07/27 05:33:49;;;;;;;47.10;28.98;;;;;;;;;;5131064;27;20354;-81
2021/07/27 05:36:16;;;;;;;36.80;25.17;;;;;;;;;;5111232;27;20043;-81
2021/07/27 05:38:42;;;;;;;40.25;26.27;;;;;;;;;;5122790;27;20036;-80
2021/07/27 05:41:09;;;;;;;39.15;26.02;;;;;;;;;;5131563;27;20498;-81
2021/07/27 05:43:35;;;;;;;36.05;23.58;;;;;;;;;;5132070;27;20477;-81
2021/07/27 05:46:04;;;;;;;40.15;26.23;;;;;;;;;;5132481;27;20122;-81
2021/07/27 05:48:30;;;;;;;40.30;26.95;;;;;;;;;;5130928;27;20031;-81
2021/07/27 05:50:58;;;;;;;47.58;28.13;;;;;;;;;;5131699;27;20031;-80
2021/07/27 05:53:24;;;;;;;47.30;28.92;;;;;;;;;;5133444;27;20031;-82
2021/07/27 05:55:50;;;;;;;41.80;26.55;;;;;;;;;;5131484;27;20035;-81
2021/07/27 05:58:17;;;;;;;45.47;27.70;;;;;;;;;;5128390;27;20546;-82
2021/07/27 06:00:43;;;;;;;44.00;28.05;;;;;;;;;;5121614;27;20466;-82
2021/07/27 06:03:10;;;;;;;39.40;27.13;;;;;;;;;;5130665;27;20069;-81
2021/07/27 06:05:36;;;;;;;41.35;27.58;;;;;;;;;;5110804;27;20035;-82
2021/07/27 06:08:02;;;;;;;36.65;26.30;;;;;;;;;;5127897;27;20035;-82
2021/07/27 06:10:29;;;;;;;43.05;28.42;;;;;;;;;;5132513;27;20459;-78
2021/07/27 06:12:56;;;;;;;38.78;26.88;;;;;;;;;;5134130;27;20422;-82
2021/07/27 06:15:22;;;;;;;43.42;29.05;;;;;;;;;;5132851;28;20035;-81
2021/07/27 06:17:48;;;;;;;35.72;26.08;;;;;;;;;;5131834;28;20095;-82
2021/07/27 06:20:14;;;;;;;37.15;24.60;;;;;;;;;;5132323;28;20043;-81
2021/07/27 06:22:40;;;;;;;42.97;27.83;;;;;;;;;;5111309;28;20042;-81
2021/07/27 06:25:10;;;;;;;40.92;25.95;;;;;;;;;;5127307;28;20508;-82
2021/07/27 06:27:36;;;;;;;39.88;28.25;;;;;;;;;;5132833;28;20496;-82
2021/07/27 06:30:03;;;;;;;41.90;29.02;;;;;;;;;;5131951;28;20065;-80
2021/07/27 06:32:29;;;;;;;49.10;28.42;;;;;;;;;;5133355;28;20034;-83
2021/07/27 06:34:56;;;;;;;43.95;28.02;;;;;;;;;;5125773;28;20046;-81
2021/07/27 06:37:22;;;;;;;44.40;29.90;;;;;;;;;;5130123;28;20058;-83
2021/07/27 06:39:48;;;;;;;39.75;29.10;;;;;;;;;;5131993;28;20055;-82
2021/07/27 06:42:16;;;;;;;46.45;32.53;;;;;;;;;;5130294;28;20036;-82
2021/07/27 06:44:42;;;;;;;42.95;29.40;;;;;;;;;;5131407;28;20027;-82
2021/07/27 06:47:08;;;;;;;53.55;31.90;;;;;;;;;;5133607;27;20054;-82
2021/07/27 06:49:35;;;;;;;52.65;33.60;;;;;;;;;;5117866;27;20061;-81
2021/07/27 06:52:01;;;;;;;51.10;33.17;;;;;;;;;;5136566;27;20039;-83
2021/07/27 06:54:27;;;;;;;52.80;35.42;;;;;;;;;;5133139;27;20071;-83
2021/07/27 06:56:56;;;;;;;51.50;32.17;;;;;;;;;;5134933;27;20062;-83
2021/07/27 06:59:23;;;;;;;57.05;36.80;;;;;;;;;;5135273;27;20035;-82
2021/07/27 07:01:52;;;;;;;63.92;38.03;;;;;;;;;;5135657;27;20488;-82
2021/07/27 07:04:18;;;;;;;56.75;36.85;;;;;;;;;;5135242;27;20046;-82
2021/07/27 07:06:44;;;;;;;61.15;38.53;;;;;;;;;;5136039;27;20385;-82
2021/07/27 07:09:10;;;;;;;65.90;39.92;;;;;;;;;;5136583;27;20077;-83
2021/07/27 07:11:36;;;;;;;66.38;40.78;;;;;;;;;;5135058;27;20038;-81
2021/07/27 07:14:03;;;;;;;63.22;40.42;;;;;;;;;;5125968;27;20046;-83
2021/07/27 07:16:29;;;;;;;67.90;42.72;;;;;;;;;;5134990;27;20069;-81
2021/07/27 07:18:55;;;;;;;70.25;42.05;;;;;;;;;;5135679;27;20067;-84
2021/07/27 07:21:21;;;;;;;69.28;43.45;;;;;;;;;;5136057;27;20040;-82
2021/07/27 07:23:47;;;;;;;63.65;43.58;;;;;;;;;;5113824;28;20043;-82
2021/07/27 07:26:13;;;;;;;69.55;43.35;;;;;;;;;;5125055;27;20114;-81
2021/07/27 07:28:40;;;;;;;70.60;46.10;;;;;;;;;;5135233;27;20047;-81
2021/07/27 07:31:16;;;;;;;70.72;45.17;;;;;;;;;;5134656;27;20046;-82
2021/07/27 07:33:43;;;;;;;68.47;43.90;;;;;;;;;;5133160;27;20046;-82
2021/07/27 07:36:13;;;;;;;54.60;40.30;;;;;;;;;;5134507;27;20046;-82
2021/07/27 07:38:40;;;;;;;59.00;41.13;;;;;;;;;;5133902;27;20035;-81
2021/07/27 07:41:10;;;;;;;57.33;42.00;;;;;;;;;;5134344;27;20502;-82
2021/07/27 07:43:37;;;;;;;55.55;43.33;;;;;;;;;;5134191;27;20728;-81
2021/07/27 07:46:03;;;;;;;54.15;42.67;;;;;;;;;;5133408;27;20403;-82
2021/07/27 07:48:29;;;;;;;61.05;44.83;;;;;;;;;;5116078;27;20413;-82
2021/07/27 07:50:55;;;;;;;56.92;42.17;;;;;;;;;;5132552;27;20418;-83
2021/07/27 07:53:22;;;;;;;56.90;42.78;;;;;;;;;;5122601;27;20416;-83
2021/07/27 07:55:48;;;;;;;61.90;43.78;;;;;;;;;;5132049;27;20490;-82
2021/07/27 07:58:14;;;;;;;61.85;44.83;;;;;;;;;;5100027;27;20531;-81
2021/07/27 08:00:40;;;;;;;62.00;46.67;;;;;;;;;;5127064;27;20406;-81
2021/07/27 08:03:06;;;;;;;60.95;46.42;;;;;;;;;;5130750;27;20777;-81
2021/07/27 08:05:32;;;;;;;61.10;45.28;;;;;;;;;;5134964;27;20723;-81
2021/07/27 08:07:59;;;;;;;59.60;45.63;;;;;;;;;;5135626;27;20439;-82
2021/07/27 08:10:26;;;;;;;66.25;48.83;;;;;;;;;;5135144;27;20780;-82
2021/07/27 08:12:52;;;;;;;61.42;46.63;;;;;;;;;;5130550;27;20878;-81
2021/07/27 08:15:24;;;;;;;62.95;48.40;;;;;;;;;;5132496;27;20497;-81
2021/07/27 08:17:50;;;;;;;59.72;46.20;;;;;;;;;;5133338;27;20402;-81
2021/07/27 08:20:16;;;;;;;64.88;48.13;;;;;;;;;;5132311;27;20881;-81
2021/07/27 08:22:43;;;;;;;59.93;46.67;;;;;;;;;;5132480;27;20908;-83
2021/07/27 08:25:21;;;;;;;61.97;46.78;;;;;;;;;;5132267;27;20413;-83
2021/07/27 08:27:47;;;;;;;59.13;46.78;;;;;;;;;;5131437;27;20406;-85
2021/07/27 08:30:14;;;;;;;54.00;44.47;;;;;;;;;;5132330;27;20505;-83
2021/07/27 08:32:44;;;;;;;51.70;42.50;;;;;;;;;;5127516;27;20456;-84
2021/07/27 08:35:11;;;;;;;55.67;43.95;;;;;;;;;;5133254;27;20411;-83
2021/07/27 08:37:37;;;;;;;60.03;44.95;;;;;;;;;;5133469;27;20402;-84
2021/07/27 08:40:03;;;;;;;54.15;42.92;;;;;;;;;;5131640;27;20410;-84
2021/07/27 08:42:30;;;;;;;50.22;41.92;;;;;;;;;;5133172;27;20403;-86
2021/07/27 08:45:01;;;;;;;50.55;41.65;;;;;;;;;;5132679;27;20897;-84
2021/07/27 08:47:27;;;;;;;51.00;41.58;;;;;;;;;;5132063;27;20418;-84
2021/07/27 08:49:56;;;;;;;47.92;39.85;;;;;;;;;;5131294;27;20419;-85
2021/07/27 08:52:22;;;;;;;46.03;39.15;;;;;;;;;;5133394;27;20474;-85
2021/07/27 08:54:48;;;;;;;47.85;39.20;;;;;;;;;;5130689;27;20881;-82
2021/07/27 08:57:14;;;;;;;51.10;40.90;;;;;;;;;;5131651;27;20428;-83
2021/07/27 08:59:41;;;;;;;47.00;39.28;;;;;;;;;;5133005;27;20406;-83
2021/07/27 09:02:07;;;;;;;42.75;38.15;;;;;;;;;;5123834;27;20643;-82
2021/07/27 09:04:34;;;;;;;43.57;37.70;;;;;;;;;;5126550;27;20429;-81
2021/07/27 09:07:00;;;;;;;42.80;37.20;;;;;;;;;;5130932;27;20489;-82
2021/07/27 09:09:30;;;;;;;44.75;37.83;;;;;;;;;;5131219;27;20422;-82
2021/07/27 09:11:57;;;;;;;45.13;39.78;;;;;;;;;;5130033;27;20410;-82
2021/07/27 09:14:23;;;;;;;44.97;39.42;;;;;;;;;;5131852;27;20406;-82
2021/07/27 09:16:51;;;;;;;45.75;39.58;;;;;;;;;;5131576;27;20403;-79
2021/07/27 09:19:17;;;;;;;43.33;38.08;;;;;;;;;;5132840;27;20505;-81
2021/07/27 09:21:45;;;;;;;43.70;37.93;;;;;;;;;;5132598;27;20411;-81
2021/07/27 09:24:12;;;;;;;44.00;39.20;;;;;;;;;;5131001;27;20414;-82
2021/07/27 09:26:38;;;;;;;41.60;37.05;;;;;;;;;;5132386;27;20410;-81
2021/07/27 09:29:04;;;;;;;43.35;38.00;;;;;;;;;;5117137;27;20498;-82
2021/07/27 09:31:31;;;;;;;41.55;35.58;;;;;;;;;;5125892;27;20749;-82
2021/07/27 09:33:57;;;;;;;41.13;34.90;;;;;;;;;;5128223;27;20901;-82
2021/07/27 09:36:27;;;;;;;39.72;34.20;;;;;;;;;;5131210;27;20406;-80
2021/07/27 09:39:00;;;;;;;41.20;36.47;;;;;;;;;;5129855;27;20489;-80
2021/07/27 09:41:28;;;;;;;39.80;35.55;;;;;;;;;;5131520;27;20418;-83
2021/07/27 09:43:55;;;;;;;41.70;36.30;;;;;;;;;;5130948;27;20410;-85
2021/07/27 09:46:21;;;;;;;40.83;34.65;;;;;;;;;;5132247;27;20399;-81
2021/07/27 09:48:47;;;;;;;39.28;34.85;;;;;;;;;;5129891;27;20410;-82
2021/07/27 09:51:14;;;;;;;37.97;33.50;;;;;;;;;;5112936;27;20437;-81
2021/07/27 09:53:41;;;;;;;38.70;33.07;;;;;;;;;;5130797;27;20455;-82
2021/07/27 09:56:11;;;;;;;37.55;33.25;;;;;;;;;;5130944;27;20431;-82
2021/07/27 09:58:37;;;;;;;39.08;33.70;;;;;;;;;;5131239;27;20436;-82
2021/07/27 10:01:07;;;;;;;40.13;35.35;;;;;;;;;;5129615;27;20411;-82
2021/07/27 10:03:35;;;;;;;38.15;33.90;;;;;;;;;;5130306;27;20422;-82
2021/07/27 10:06:02;;;;;;;36.25;31.38;;;;;;;;;;5129853;27;20439;-83
2021/07/27 10:08:31;;;;;;;35.90;30.90;;;;;;;;;;5132055;27;20777;-86
2021/07/27 10:11:15;;;;;;;37.80;31.95;;;;;;;;;;5129834;27;20430;-85
2021/07/27 10:13:46;;;;;;;39.72;32.03;;;;;;;;;;5131656;27;20462;-86
2021/07/27 10:16:21;;;;;;;38.20;31.30;;;;;;;;;;5132056;27;20454;-82
2021/07/27 10:18:49;;;;;;;36.33;32.45;;;;;;;;;;5132584;27;20501;-82
2021/07/27 10:21:26;;;;;;;35.53;30.23;;;;;;;;;;5132413;27;20050;-83
2021/07/27 10:23:57;;;;;;;34.53;30.52;;;;;;;;;;5136049;27;20043;-84
2021/07/27 10:26:27;;;;;;;34.20;29.65;;;;;;;;;;5135837;27;20470;-82
2021/07/27 10:28:54;;;;;;;34.45;30.05;;;;;;;;;;5135534;27;20095;-83
2021/07/27 10:31:29;;;;;;;33.78;28.85;;;;;;;;;;5134740;27;20043;-83
2021/07/27 10:33:56;;;;;;;32.13;27.77;;;;;;;;;;5135009;27;20046;-84
2021/07/27 10:36:31;;;;;;;36.97;29.20;;;;;;;;;;5136533;27;20039;-81
2021/07/27 10:39:18;;;;;;;31.98;28.50;;;;;;;;;;5135274;27;20110;-85
2021/07/27 10:41:50;;;;;;;28.42;25.42;;;;;;;;;;5137101;27;20055;-82
2021/07/27 10:44:22;;;;;;;29.63;25.98;;;;;;;;;;5136144;27;20084;-83
2021/07/27 10:46:49;;;;;;;29.67;26.55;;;;;;;;;;5136797;27;20039;-85
2021/07/27 10:49:21;;;;;;;35.20;28.45;;;;;;;;;;5134642;27;20039;-85
2021/07/27 10:51:47;;;;;;;31.88;28.55;;;;;;;;;;5131125;27;20070;-85
2021/07/27 10:54:15;;;;;;;32.33;27.77;;;;;;;;;;5135960;27;20122;-84
2021/07/27 10:56:44;;;;;;;31.98;28.33;;;;;;;;;;5136389;27;20067;-83
2021/07/27 10:59:10;;;;;;;33.10;27.48;;;;;;;;;;5134931;27;20043;-84
2021/07/27 11:01:36;;;;;;;30.65;27.13;;;;;;;;;;5136390;27;20115;-85
2021/07/27 11:04:09;;;;;;;30.17;26.40;;;;;;;;;;5134669;27;20503;-85
2021/07/27 11:06:36;;;;;;;27.88;24.95;;;;;;;;;;5134896;27;20069;-84
2021/07/27 11:09:02;;;;;;;27.67;24.77;;;;;;;;;;5114623;28;20043;-79
2021/07/27 11:11:28;;;;;;;28.90;23.77;;;;;;;;;;5134815;27;20045;-88
2021/07/27 11:13:55;;;;;;;26.00;22.58;;;;;;;;;;5136022;27;20146;-86
2021/07/27 11:16:21;;;;;;;21.08;17.67;;;;;;;;;;5134813;27;20050;-86
2021/07/27 11:18:47;;;;;;;18.15;16.13;;;;;;;;;;5137411;27;20043;-86
2021/07/27 11:21:14;;;;;;;21.58;17.30;;;;;;;;;;5137781;27;20136;-84
2021/07/27 11:23:41;;;;;;;20.90;16.67;;;;;;;;;;5136008;27;20043;-83
2021/07/27 11:26:07;;;;;;;18.98;15.10;;;;;;;;;;5137087;27;20047;-87
2021/07/27 11:28:40;;;;;;;16.17;13.68;;;;;;;;;;5137255;27;20118;-85
2021/07/27 11:31:19;;;;;;;15.77;14.02;;;;;;;;;;5127188;27;20076;-85
2021/07/27 11:33:49;;;;;;;17.75;13.40;;;;;;;;;;5134722;27;20055;-85
2021/07/27 11:36:20;;;;;;;15.45;12.95;;;;;;;;;;5135478;27;20043;-84
2021/07/27 11:38:46;;;;;;;16.50;14.43;;;;;;;;;;5135828;27;20394;-85
2021/07/27 11:41:14;;;;;;;15.98;13.85;;;;;;;;;;5134539;27;20456;-84
2021/07/27 11:43:41;;;;;;;17.23;14.07;;;;;;;;;;5134893;27;20095;-84
2021/07/27 11:46:09;;;;;;;18.75;14.80;;;;;;;;;;5135266;27;20473;-84
2021/07/27 11:48:36;;;;;;;18.63;14.98;;;;;;;;;;5135475;27;20038;-83
2021/07/27 11:51:03;;;;;;;17.48;14.63;;;;;;;;;;5134419;27;20388;-84
2021/07/27 11:53:32;;;;;;;18.70;14.90;;;;;;;;;;5133277;27;20110;-84
2021/07/27 11:55:58;;;;;;;15.85;14.15;;;;;;;;;;5134333;27;20390;-83
2021/07/27 11:58:28;;;;;;;18.23;15.30;;;;;;;;;;5133521;27;20035;-83
2021/07/27 12:00:58;;;;;;;17.48;14.68;;;;;;;;;;5135477;27;20470;-90
2021/07/27 12:03:25;;;;;;;19.48;15.13;;;;;;;;;;5136282;27;20084;-89
2021/07/27 12:05:51;;;;;;;18.98;14.85;;;;;;;;;;5125121;27;20040;-90
2021/07/27 12:08:19;;;;;;;18.27;14.43;;;;;;;;;;5131652;27;20474;-89
2021/07/27 12:10:45;;;;;;;21.85;15.98;;;;;;;;;;5127746;27;20027;-90
2021/07/27 12:13:11;;;;;;;20.60;15.27;;;;;;;;;;5135296;27;20035;-88
2021/07/27 12:15:37;;;;;;;20.83;15.80;;;;;;;;;;5136610;27;20046;-89
2021/07/27 12:18:03;;;;;;;17.75;15.38;;;;;;;;;;5134395;27;20049;-87
2021/07/27 12:20:29;;;;;;;20.02;15.73;;;;;;;;;;5134948;27;20035;-89
2021/07/27 12:22:56;;;;;;;19.15;15.82;;;;;;;;;;5133884;27;20050;-89
2021/07/27 12:25:22;;;;;;;18.83;16.23;;;;;;;;;;5134393;27;20039;-87
2021/07/27 12:27:48;;;;;;;24.35;16.92;;;;;;;;;;5134004;27;20077;-88
2021/07/27 12:30:14;;;;;;;21.42;15.77;;;;;;;;;;5122108;27;20036;-88
2021/07/27 12:32:40;;;;;;;18.55;16.63;;;;;;;;;;5114342;27;20059;-86
2021/07/27 12:35:07;;;;;;;19.90;16.33;;;;;;;;;;5113259;27;20054;-79
2021/07/27 12:37:36;;;;;;;20.45;16.00;;;;;;;;;;5131508;27;20537;-83
2021/07/27 12:40:03;;;;;;;16.55;14.35;;;;;;;;;;5112339;28;20039;-83
2021/07/27 12:42:29;;;;;;;16.83;14.85;;;;;;;;;;5132200;27;20432;-83
2021/07/27 12:44:55;;;;;;;16.50;14.85;;;;;;;;;;5131067;27;20498;-83
2021/07/27 12:47:22;;;;;;;19.13;15.27;;;;;;;;;;5158670;27;20115;-81
2021/07/27 12:49:48;;;;;;;21.05;16.65;;;;;;;;;;5133308;27;20043;-85
2021/07/27 12:52:14;;;;;;;18.33;16.00;;;;;;;;;;5133915;27;20043;-85
2021/07/27 12:54:40;;;;;;;20.27;14.60;;;;;;;;;;5133009;27;20413;-86
2021/07/27 12:57:07;;;;;;;19.40;14.98;;;;;;;;;;5112778;28;20059;-85
2021/07/27 12:59:33;;;;;;;19.33;16.58;;;;;;;;;;5127266;27;20047;-86
2021/07/27 13:01:59;;;;;;;17.42;15.60;;;;;;;;;;5134471;27;20110;-85
2021/07/27 13:04:26;;;;;;;21.35;16.58;;;;;;;;;;5131399;27;20451;-85
2021/07/27 13:06:52;;;;;;;19.75;16.48;;;;;;;;;;5121918;27;20118;-87
2021/07/27 13:09:18;;;;;;;18.77;15.50;;;;;;;;;;5132151;27;20118;-83
2021/07/27 13:11:44;;;;;;;19.00;15.13;;;;;;;;;;5115666;27;20039;-84
2021/07/27 13:14:10;;;;;;;21.30;17.02;;;;;;;;;;5112085;28;20051;-85
2021/07/27 13:16:37;;;;;;;20.58;17.27;;;;;;;;;;5127033;27;20035;-83
2021/07/27 13:19:04;;;;;;;20.55;17.15;;;;;;;;;;5132430;27;20128;-84
2021/07/27 13:21:30;;;;;;;;;;;;;;;;;;5133262;27;20039;-85
2021/07/27 13:24:01;;;;;;;;;;;;;;;;;;5134039;27;19927;-82
2021/07/27 13:26:27;;;;;;;;;;;;;;;;;;5158858;27;19949;-84
2021/07/27 13:28:53;;;;;;;;;;;;;;;;;;5132032;27;19926;-86
2021/07/27 13:31:21;;;;;;;;;;;;;;;;;;5167071;27;20404;-90
2021/07/27 13:33:47;;;;;;;;;;;;;;;;;;5133695;27;19927;-82
2021/07/27 13:36:13;;;;;;;;;;;;;;;;;;5167725;27;19967;-87
2021/07/27 13:38:39;;;;;;;;;;;;;;;;;;5133007;27;20006;-87
2021/07/27 13:41:05;;;;;;;;;;;;;;;;;;5167725;27;19923;-85
2021/07/27 13:43:32;;;;;;;;;;;;;;;;;;5133296;27;19919;-86
2021/07/27 13:45:58;;;;;;;;;;;;;;;;;;5124528;27;19923;-85
2021/07/27 13:48:24;;;;;;;;;;;;;;;;;;5133000;27;19919;-86
2021/07/27 13:50:51;;;;;;;;;;;;;;;;;;5133714;27;19919;-89
2021/07/27 13:53:17;;;;;;;;;;;;;;;;;;5133635;27;19935;-85
2021/07/27 13:55:43;;;;;;;;;;;;;;;;;;5133057;27;20358;-86
2021/07/27 13:58:09;;;;;;;;;;;;;;;;;;5166330;27;20018;-86
2021/07/27 14:00:35;;;;;;;;;;;;;;;;;;5133620;27;19919;-88
2021/07/27 14:03:01;;;;;;;;;;;;;;;;;;5164205;27;19926;-86
2021/07/27 14:05:27;;;;;;;;;;;;;;;;;;5133273;27;19923;-92
2021/07/27 14:07:53;;;;;;;;;;;;;;;;;;5134672;27;19927;-92
2021/07/27 14:10:19;;;;;;;;;;;;;;;;;;5133549;27;20006;-94
2021/07/27 14:12:45;;;;;;;;;;;;;;;;;;5133888;27;19927;-92
2021/07/27 14:15:11;;;;;;;;;;;;;;;;;;5167567;27;20009;-85
2021/07/27 14:17:37;;;;;;;;;;;;;;;;;;5130333;27;19962;-89
2021/07/27 14:20:03;;;;;;;;;;;;;;;;;;5134079;27;19926;-89
2021/07/27 14:22:29;;;;;;;;;;;;;;;;;;5127507;28;19919;-87
2021/07/27 14:24:55;;;;;;;;;;;;;;;;;;5127445;28;19920;-90
2021/07/27 14:27:21;;;;;;;;;;;;;;;;;;5118895;28;19942;-85
2021/07/27 14:29:47;;;;;;;;;;;;;;;;;;5132792;28;19920;-82
2021/07/27 14:32:13;;;;;;;;;;;;;;;;;;5133093;28;19968;-83
2021/07/27 14:34:39;;;;;;;;;;;;;;;;;;5132885;28;20323;-87
2021/07/27 14:37:05;;;;;;;;;;;;;;;;;;5166625;27;19923;-82
2021/07/27 14:39:31;;;;;;;;;;;;;;;;;;5132483;27;19927;-88
2021/07/27 14:41:57;;;;;;;;;;;;;;;;;;5164116;27;20336;-83
2021/07/27 14:44:24;;;;;;;;;;;;;;;;;;5132791;28;20008;-87
2021/07/27 14:46:51;;;;;;;;;;;;;;;;;;5165795;27;19972;-87
2021/07/27 14:49:17;;;;;;;;;;;;;;;;;;5165952;27;19966;-86
2021/07/27 14:51:44;;;;;;;;;;;;;;;;;;5132478;28;19919;-87
2021/07/27 14:54:10;;;;;;;;;;;;;;;;;;5133235;28;19919;-86